sensor_id;sensor_type;location;lat;lon;timestamp;P1;P2;P0
55754;PMS5003;41674;52.290;-1.474;2023-08-12T00:02:24;2;2;
55754;PMS5003;41674;52.290;-1.474;2023-08-12T00:04:53;5;4;
55754;PMS5003;41674;52.290;-1.474;2023-08-12T00:07:23;5;4;
55754;PMS5003;41674;52.290;-1.474;2023-08-12T00:09:52;5;5;
55754;PMS5003;41674;52.290;-1.474;2023-08-12T00:12:22;6;6;
55754;PMS5003;41674;52.290;-1.474;2023-08-12T00:14:51;6;5;
55754;PMS5003;41674;52.290;-1.474;2023-08-12T00:17:21;6;5;
55754;PMS5003;41674;52.290;-1.474;2023-08-12T00:19:50;4;3;
55754;PMS5003;41674;52.290;-1.474;2023-08-12T00:22:21;7;3;
55754;PMS5003;41674;52.290;-1.474;2023-08-12T00:24:50;4;4;
55754;PMS5003;41674;52.290;-1.474;2023-08-12T00:27:19;4;4;
55754;PMS5003;41674;52.290;-1.474;2023-08-12T00:29:48;5;5;
55754;PMS5003;41674;52.290;-1.474;2023-08-12T00:32:18;2;2;
55754;PMS5003;41674;52.290;-1.474;2023-08-12T00:34:48;4;4;
55754;PMS5003;41674;52.290;-1.474;2023-08-12T00:37:17;5;5;
55754;PMS5003;41674;52.290;-1.474;2023-08-12T00:39:47;5;4;
55754;PMS5003;41674;52.290;-1.474;2023-08-12T00:42:16;4;3;
55754;PMS5003;41674;52.290;-1.474;2023-08-12T00:44:46;6;6;
55754;PMS5003;41674;52.290;-1.474;2023-08-12T00:47:16;5;5;
55754;PMS5003;41674;52.290;-1.474;2023-08-12T00:49:45;4;4;
55754;PMS5003;41674;52.290;-1.474;2023-08-12T00:52:14;3;3;
55754;PMS5003;41674;52.290;-1.474;2023-08-12T00:54:44;5;5;
55754;PMS5003;41674;52.290;-1.474;2023-08-12T00:57:13;5;4;
55754;PMS5003;41674;52.290;-1.474;2023-08-12T00:59:43;8;5;
55754;PMS5003;41674;52.290;-1.474;2023-08-12T01:02:12;8;6;
55754;PMS5003;41674;52.290;-1.474;2023-08-12T01:04:42;6;6;
55754;PMS5003;41674;52.290;-1.474;2023-08-12T01:07:12;5;5;
55754;PMS5003;41674;52.290;-1.474;2023-08-12T01:09:41;4;4;
55754;PMS5003;41674;52.290;-1.474;2023-08-12T01:12:12;8;5;
55754;PMS5003;41674;52.290;-1.474;2023-08-12T01:14:49;4;4;
55754;PMS5003;41674;52.290;-1.474;2023-08-12T01:17:10;7;4;
55754;PMS5003;41674;52.290;-1.474;2023-08-12T01:19:40;4;4;
55754;PMS5003;41674;52.290;-1.474;2023-08-12T01:22:09;7;3;
55754;PMS5003;41674;52.290;-1.474;2023-08-12T01:24:39;7;5;
55754;PMS5003;41674;52.290;-1.474;2023-08-12T01:27:08;6;5;
55754;PMS5003;41674;52.290;-1.474;2023-08-12T01:29:38;5;4;
55754;PMS5003;41674;52.290;-1.474;2023-08-12T01:32:08;9;4;
55754;PMS5003;41674;52.290;-1.474;2023-08-12T01:34:39;7;3;
55754;PMS5003;41674;52.290;-1.474;2023-08-12T01:37:06;8;6;
55754;PMS5003;41674;52.290;-1.474;2023-08-12T01:39:35;5;5;
55754;PMS5003;41674;52.290;-1.474;2023-08-12T01:42:05;5;5;
55754;PMS5003;41674;52.290;-1.474;2023-08-12T01:44:34;8;6;
55754;PMS5003;41674;52.290;-1.474;2023-08-12T01:47:05;7;5;
55754;PMS5003;41674;52.290;-1.474;2023-08-12T01:49:34;6;5;
55754;PMS5003;41674;52.290;-1.474;2023-08-12T01:52:03;7;6;
55754;PMS5003;41674;52.290;-1.474;2023-08-12T01:54:33;5;5;
55754;PMS5003;41674;52.290;-1.474;2023-08-12T01:57:02;3;3;
55754;PMS5003;41674;52.290;-1.474;2023-08-12T01:59:32;6;5;
55754;PMS5003;41674;52.290;-1.474;2023-08-12T02:02:02;4;4;
55754;PMS5003;41674;52.290;-1.474;2023-08-12T02:04:31;5;5;
55754;PMS5003;41674;52.290;-1.474;2023-08-12T02:07:01;7;7;
55754;PMS5003;41674;52.290;-1.474;2023-08-12T02:09:30;8;5;
55754;PMS5003;41674;52.290;-1.474;2023-08-12T02:12:00;6;6;
55754;PMS5003;41674;52.290;-1.474;2023-08-12T02:14:29;9;7;
55754;PMS5003;41674;52.290;-1.474;2023-08-12T02:16:59;4;4;
55754;PMS5003;41674;52.290;-1.474;2023-08-12T02:19:28;7;6;
55754;PMS5003;41674;52.290;-1.474;2023-08-12T02:21:58;5;5;
55754;PMS5003;41674;52.290;-1.474;2023-08-12T02:24:28;9;7;
55754;PMS5003;41674;52.290;-1.474;2023-08-12T02:26:57;7;5;
55754;PMS5003;41674;52.290;-1.474;2023-08-12T02:29:27;9;8;
55754;PMS5003;41674;52.290;-1.474;2023-08-12T02:31:56;4;4;
55754;PMS5003;41674;52.290;-1.474;2023-08-12T02:34:26;6;5;
55754;PMS5003;41674;52.290;-1.474;2023-08-12T02:36:55;9;5;
55754;PMS5003;41674;52.290;-1.474;2023-08-12T02:39:25;5;5;
55754;PMS5003;41674;52.290;-1.474;2023-08-12T02:41:55;8;6;
55754;PMS5003;41674;52.290;-1.474;2023-08-12T02:44:24;7;6;
55754;PMS5003;41674;52.290;-1.474;2023-08-12T02:46:54;5;5;
55754;PMS5003;41674;52.290;-1.474;2023-08-12T02:49:23;10;7;
55754;PMS5003;41674;52.290;-1.474;2023-08-12T02:51:53;5;5;
55754;PMS5003;41674;52.290;-1.474;2023-08-12T02:54:22;5;5;
55754;PMS5003;41674;52.290;-1.474;2023-08-12T02:56:52;8;6;
55754;PMS5003;41674;52.290;-1.474;2023-08-12T02:59:22;6;6;
55754;PMS5003;41674;52.290;-1.474;2023-08-12T03:01:52;10;7;
55754;PMS5003;41674;52.290;-1.474;2023-08-12T03:04:21;7;6;
55754;PMS5003;41674;52.290;-1.474;2023-08-12T03:06:50;7;7;
55754;PMS5003;41674;52.290;-1.474;2023-08-12T03:09:20;9;9;
55754;PMS5003;41674;52.290;-1.474;2023-08-12T03:11:49;7;7;
55754;PMS5003;41674;52.290;-1.474;2023-08-12T03:14:18;5;5;
55754;PMS5003;41674;52.290;-1.474;2023-08-12T03:16:48;8;7;
55754;PMS5003;41674;52.290;-1.474;2023-08-12T03:19:17;5;5;
55754;PMS5003;41674;52.290;-1.474;2023-08-12T03:21:47;9;8;
55754;PMS5003;41674;52.290;-1.474;2023-08-12T03:24:16;9;8;
55754;PMS5003;41674;52.290;-1.474;2023-08-12T03:26:46;6;6;
55754;PMS5003;41674;52.290;-1.474;2023-08-12T03:29:16;9;7;
55754;PMS5003;41674;52.290;-1.474;2023-08-12T03:31:45;11;7;
55754;PMS5003;41674;52.290;-1.474;2023-08-12T03:34:15;10;5;
55754;PMS5003;41674;52.290;-1.474;2023-08-12T03:36:44;7;6;
55754;PMS5003;41674;52.290;-1.474;2023-08-12T03:39:14;8;7;
55754;PMS5003;41674;52.290;-1.474;2023-08-12T03:41:44;8;7;
55754;PMS5003;41674;52.290;-1.474;2023-08-12T03:44:13;9;7;
55754;PMS5003;41674;52.290;-1.474;2023-08-12T03:46:43;8;7;
55754;PMS5003;41674;52.290;-1.474;2023-08-12T03:49:12;8;6;
55754;PMS5003;41674;52.290;-1.474;2023-08-12T03:51:42;7;6;
55754;PMS5003;41674;52.290;-1.474;2023-08-12T03:54:12;7;6;
55754;PMS5003;41674;52.290;-1.474;2023-08-12T03:56:41;6;4;
55754;PMS5003;41674;52.290;-1.474;2023-08-12T03:59:10;7;6;
55754;PMS5003;41674;52.290;-1.474;2023-08-12T04:01:40;6;5;
55754;PMS5003;41674;52.290;-1.474;2023-08-12T04:04:09;8;5;
55754;PMS5003;41674;52.290;-1.474;2023-08-12T04:06:39;12;8;
55754;PMS5003;41674;52.290;-1.474;2023-08-12T04:09:08;9;6;
55754;PMS5003;41674;52.290;-1.474;2023-08-12T04:11:38;8;6;
55754;PMS5003;41674;52.290;-1.474;2023-08-12T04:14:08;10;6;
55754;PMS5003;41674;52.290;-1.474;2023-08-12T04:16:38;6;6;
55754;PMS5003;41674;52.290;-1.474;2023-08-12T04:19:07;7;5;
55754;PMS5003;41674;52.290;-1.474;2023-08-12T04:21:37;5;5;
55754;PMS5003;41674;52.290;-1.474;2023-08-12T04:24:07;11;6;
55754;PMS5003;41674;52.290;-1.474;2023-08-12T04:26:36;6;6;
55754;PMS5003;41674;52.290;-1.474;2023-08-12T04:29:05;11;8;
55754;PMS5003;41674;52.290;-1.474;2023-08-12T04:31:35;8;7;
55754;PMS5003;41674;52.290;-1.474;2023-08-12T04:34:04;5;4;
55754;PMS5003;41674;52.290;-1.474;2023-08-12T04:36:34;6;6;
55754;PMS5003;41674;52.290;-1.474;2023-08-12T04:39:03;8;6;
55754;PMS5003;41674;52.290;-1.474;2023-08-12T04:41:33;8;8;
55754;PMS5003;41674;52.290;-1.474;2023-08-12T04:44:03;8;7;
55754;PMS5003;41674;52.290;-1.474;2023-08-12T04:46:32;8;6;
55754;PMS5003;41674;52.290;-1.474;2023-08-12T04:49:02;7;5;
55754;PMS5003;41674;52.290;-1.474;2023-08-12T04:51:31;6;5;
55754;PMS5003;41674;52.290;-1.474;2023-08-12T04:54:02;9;8;
55754;PMS5003;41674;52.290;-1.474;2023-08-12T04:56:30;7;7;
55754;PMS5003;41674;52.290;-1.474;2023-08-12T04:59:00;5;4;
55754;PMS5003;41674;52.290;-1.474;2023-08-12T05:01:30;5;5;
55754;PMS5003;41674;52.290;-1.474;2023-08-12T05:03:59;7;6;
55754;PMS5003;41674;52.290;-1.474;2023-08-12T05:06:29;6;6;
55754;PMS5003;41674;52.290;-1.474;2023-08-12T05:08:58;9;8;
55754;PMS5003;41674;52.290;-1.474;2023-08-12T05:11:28;10;8;
55754;PMS5003;41674;52.290;-1.474;2023-08-12T05:13:57;7;7;
55754;PMS5003;41674;52.290;-1.474;2023-08-12T05:16:27;5;5;
55754;PMS5003;41674;52.290;-1.474;2023-08-12T05:18:56;8;7;
55754;PMS5003;41674;52.290;-1.474;2023-08-12T05:21:26;9;7;
55754;PMS5003;41674;52.290;-1.474;2023-08-12T05:23:56;9;4;
55754;PMS5003;41674;52.290;-1.474;2023-08-12T05:26:25;8;6;
55754;PMS5003;41674;52.290;-1.474;2023-08-12T05:28:55;7;6;
55754;PMS5003;41674;52.290;-1.474;2023-08-12T05:31:25;9;6;
55754;PMS5003;41674;52.290;-1.474;2023-08-12T05:33:54;6;6;
55754;PMS5003;41674;52.290;-1.474;2023-08-12T05:36:24;4;4;
55754;PMS5003;41674;52.290;-1.474;2023-08-12T05:38:53;6;6;
55754;PMS5003;41674;52.290;-1.474;2023-08-12T05:41:23;7;6;
55754;PMS5003;41674;52.290;-1.474;2023-08-12T05:43:53;6;5;
55754;PMS5003;41674;52.290;-1.474;2023-08-12T05:46:22;5;5;
55754;PMS5003;41674;52.290;-1.474;2023-08-12T05:48:52;9;6;
55754;PMS5003;41674;52.290;-1.474;2023-08-12T05:51:23;7;6;
55754;PMS5003;41674;52.290;-1.474;2023-08-12T05:53:51;5;4;
55754;PMS5003;41674;52.290;-1.474;2023-08-12T05:56:20;9;6;
55754;PMS5003;41674;52.290;-1.474;2023-08-12T05:58:50;5;5;
55754;PMS5003;41674;52.290;-1.474;2023-08-12T06:01:19;8;8;
55754;PMS5003;41674;52.290;-1.474;2023-08-12T06:03:49;8;8;
55754;PMS5003;41674;52.290;-1.474;2023-08-12T06:06:18;6;6;
55754;PMS5003;41674;52.290;-1.474;2023-08-12T06:08:48;8;7;
55754;PMS5003;41674;52.290;-1.474;2023-08-12T06:11:18;10;8;
55754;PMS5003;41674;52.290;-1.474;2023-08-12T06:13:47;5;4;
55754;PMS5003;41674;52.290;-1.474;2023-08-12T06:16:17;6;6;
55754;PMS5003;41674;52.290;-1.474;2023-08-12T06:18:46;9;7;
55754;PMS5003;41674;52.290;-1.474;2023-08-12T06:21:15;9;7;
55754;PMS5003;41674;52.290;-1.474;2023-08-12T06:23:45;9;5;
55754;PMS5003;41674;52.290;-1.474;2023-08-12T06:26:15;6;6;
55754;PMS5003;41674;52.290;-1.474;2023-08-12T06:28:44;7;7;
55754;PMS5003;41674;52.290;-1.474;2023-08-12T06:31:13;10;7;
55754;PMS5003;41674;52.290;-1.474;2023-08-12T06:33:43;7;6;
55754;PMS5003;41674;52.290;-1.474;2023-08-12T06:36:12;7;6;
55754;PMS5003;41674;52.290;-1.474;2023-08-12T06:38:42;7;6;
55754;PMS5003;41674;52.290;-1.474;2023-08-12T06:41:11;9;6;
55754;PMS5003;41674;52.290;-1.474;2023-08-12T06:43:41;5;5;
55754;PMS5003;41674;52.290;-1.474;2023-08-12T06:46:11;6;6;
55754;PMS5003;41674;52.290;-1.474;2023-08-12T06:48:40;6;4;
55754;PMS5003;41674;52.290;-1.474;2023-08-12T06:51:10;10;6;
55754;PMS5003;41674;52.290;-1.474;2023-08-12T06:53:39;9;6;
55754;PMS5003;41674;52.290;-1.474;2023-08-12T06:56:09;5;5;
55754;PMS5003;41674;52.290;-1.474;2023-08-12T06:58:38;6;6;
55754;PMS5003;41674;52.290;-1.474;2023-08-12T07:01:08;5;5;
55754;PMS5003;41674;52.290;-1.474;2023-08-12T07:03:38;11;4;
55754;PMS5003;41674;52.290;-1.474;2023-08-12T07:06:07;8;7;
55754;PMS5003;41674;52.290;-1.474;2023-08-12T07:08:37;6;6;
55754;PMS5003;41674;52.290;-1.474;2023-08-12T07:11:06;5;4;
55754;PMS5003;41674;52.290;-1.474;2023-08-12T07:13:36;7;6;
55754;PMS5003;41674;52.290;-1.474;2023-08-12T07:16:05;8;6;
55754;PMS5003;41674;52.290;-1.474;2023-08-12T07:18:35;10;7;
55754;PMS5003;41674;52.290;-1.474;2023-08-12T07:21:05;7;4;
55754;PMS5003;41674;52.290;-1.474;2023-08-12T07:23:34;6;6;
55754;PMS5003;41674;52.290;-1.474;2023-08-12T07:26:04;7;7;
55754;PMS5003;41674;52.290;-1.474;2023-08-12T07:28:33;8;5;
55754;PMS5003;41674;52.290;-1.474;2023-08-12T07:31:03;7;5;
55754;PMS5003;41674;52.290;-1.474;2023-08-12T07:33:32;6;5;
55754;PMS5003;41674;52.290;-1.474;2023-08-12T07:36:02;6;5;
55754;PMS5003;41674;52.290;-1.474;2023-08-12T07:38:32;4;4;
55754;PMS5003;41674;52.290;-1.474;2023-08-12T07:41:01;5;5;
55754;PMS5003;41674;52.290;-1.474;2023-08-12T07:43:30;9;8;
55754;PMS5003;41674;52.290;-1.474;2023-08-12T07:46:00;7;5;
55754;PMS5003;41674;52.290;-1.474;2023-08-12T07:48:30;12;10;
55754;PMS5003;41674;52.290;-1.474;2023-08-12T07:50:59;4;4;
55754;PMS5003;41674;52.290;-1.474;2023-08-12T07:53:29;8;6;
55754;PMS5003;41674;52.290;-1.474;2023-08-12T07:55:58;7;6;
55754;PMS5003;41674;52.290;-1.474;2023-08-12T07:58:28;6;5;
55754;PMS5003;41674;52.290;-1.474;2023-08-12T08:00:57;7;6;
55754;PMS5003;41674;52.290;-1.474;2023-08-12T08:03:27;8;5;
55754;PMS5003;41674;52.290;-1.474;2023-08-12T08:05:57;5;5;
55754;PMS5003;41674;52.290;-1.474;2023-08-12T08:08:26;9;8;
55754;PMS5003;41674;52.290;-1.474;2023-08-12T08:10:56;6;5;
55754;PMS5003;41674;52.290;-1.474;2023-08-12T08:13:25;7;4;
55754;PMS5003;41674;52.290;-1.474;2023-08-12T08:15:55;6;5;
55754;PMS5003;41674;52.290;-1.474;2023-08-12T08:18:25;5;4;
55754;PMS5003;41674;52.290;-1.474;2023-08-12T08:20:54;8;4;
55754;PMS5003;41674;52.290;-1.474;2023-08-12T08:23:24;6;5;
55754;PMS5003;41674;52.290;-1.474;2023-08-12T08:25:53;6;6;
55754;PMS5003;41674;52.290;-1.474;2023-08-12T08:28:23;8;5;
55754;PMS5003;41674;52.290;-1.474;2023-08-12T08:30:52;7;6;
55754;PMS5003;41674;52.290;-1.474;2023-08-12T08:33:21;8;6;
55754;PMS5003;41674;52.290;-1.474;2023-08-12T08:35:51;7;4;
55754;PMS5003;41674;52.290;-1.474;2023-08-12T08:38:20;6;5;
55754;PMS5003;41674;52.290;-1.474;2023-08-12T08:40:50;5;5;
55754;PMS5003;41674;52.290;-1.474;2023-08-12T08:43:20;4;4;
55754;PMS5003;41674;52.290;-1.474;2023-08-12T08:45:49;6;5;
55754;PMS5003;41674;52.290;-1.474;2023-08-12T08:48:18;6;4;
55754;PMS5003;41674;52.290;-1.474;2023-08-12T08:50:48;3;3;
55754;PMS5003;41674;52.290;-1.474;2023-08-12T08:53:17;8;4;
55754;PMS5003;41674;52.290;-1.474;2023-08-12T08:55:47;6;6;
55754;PMS5003;41674;52.290;-1.474;2023-08-12T08:58:16;4;3;
55754;PMS5003;41674;52.290;-1.474;2023-08-12T09:00:46;4;3;
55754;PMS5003;41674;52.290;-1.474;2023-08-12T09:03:15;3;3;
55754;PMS5003;41674;52.290;-1.474;2023-08-12T09:05:45;3;3;
55754;PMS5003;41674;52.290;-1.474;2023-08-12T09:08:14;6;4;
55754;PMS5003;41674;52.290;-1.474;2023-08-12T09:10:43;5;5;
55754;PMS5003;41674;52.290;-1.474;2023-08-12T09:13:13;4;3;
55754;PMS5003;41674;52.290;-1.474;2023-08-12T09:15:43;7;6;
55754;PMS5003;41674;52.290;-1.474;2023-08-12T09:18:12;6;5;
55754;PMS5003;41674;52.290;-1.474;2023-08-12T09:20:41;8;6;
55754;PMS5003;41674;52.290;-1.474;2023-08-12T09:23:11;9;5;
55754;PMS5003;41674;52.290;-1.474;2023-08-12T09:25:41;6;5;
55754;PMS5003;41674;52.290;-1.474;2023-08-12T09:28:10;5;5;
55754;PMS5003;41674;52.290;-1.474;2023-08-12T09:30:40;8;3;
55754;PMS5003;41674;52.290;-1.474;2023-08-12T09:33:09;4;3;
55754;PMS5003;41674;52.290;-1.474;2023-08-12T09:35:39;4;3;
55754;PMS5003;41674;52.290;-1.474;2023-08-12T09:38:10;7;5;
55754;PMS5003;41674;52.290;-1.474;2023-08-12T09:40:37;5;5;
55754;PMS5003;41674;52.290;-1.474;2023-08-12T09:43:07;7;6;
55754;PMS5003;41674;52.290;-1.474;2023-08-12T09:45:36;6;5;
55754;PMS5003;41674;52.290;-1.474;2023-08-12T09:48:06;3;1;
55754;PMS5003;41674;52.290;-1.474;2023-08-12T09:50:36;5;5;
55754;PMS5003;41674;52.290;-1.474;2023-08-12T09:53:05;8;6;
55754;PMS5003;41674;52.290;-1.474;2023-08-12T09:55:34;5;4;
55754;PMS5003;41674;52.290;-1.474;2023-08-12T09:58:05;4;4;
55754;PMS5003;41674;52.290;-1.474;2023-08-12T10:00:34;5;3;
55754;PMS5003;41674;52.290;-1.474;2023-08-12T10:03:03;6;3;
55754;PMS5003;41674;52.290;-1.474;2023-08-12T10:05:34;3;2;
55754;PMS5003;41674;52.290;-1.474;2023-08-12T10:08:02;5;5;
55754;PMS5003;41674;52.290;-1.474;2023-08-12T10:10:32;2;2;
55754;PMS5003;41674;52.290;-1.474;2023-08-12T10:13:01;6;5;
55754;PMS5003;41674;52.290;-1.474;2023-08-12T10:15:30;5;4;
55754;PMS5003;41674;52.290;-1.474;2023-08-12T10:18:00;2;2;
55754;PMS5003;41674;52.290;-1.474;2023-08-12T10:20:29;4;3;
55754;PMS5003;41674;52.290;-1.474;2023-08-12T10:22:59;6;3;
55754;PMS5003;41674;52.290;-1.474;2023-08-12T10:25:31;2;2;
55754;PMS5003;41674;52.290;-1.474;2023-08-12T10:27:58;2;2;
55754;PMS5003;41674;52.290;-1.474;2023-08-12T10:30:28;2;2;
55754;PMS5003;41674;52.290;-1.474;2023-08-12T10:32:58;3;3;
55754;PMS5003;41674;52.290;-1.474;2023-08-12T10:37:56;6;3;
55754;PMS5003;41674;52.290;-1.474;2023-08-12T10:40:26;3;2;
55754;PMS5003;41674;52.290;-1.474;2023-08-12T10:42:55;2;2;
55754;PMS5003;41674;52.290;-1.474;2023-08-12T10:45:25;2;2;
55754;PMS5003;41674;52.290;-1.474;2023-08-12T10:48:10;1;1;
55754;PMS5003;41674;52.290;-1.474;2023-08-12T10:50:25;1;1;
55754;PMS5003;41674;52.290;-1.474;2023-08-12T10:52:53;1;1;
55754;PMS5003;41674;52.290;-1.474;2023-08-12T10:55:23;1;1;
55754;PMS5003;41674;52.290;-1.474;2023-08-12T10:57:52;1;1;
55754;PMS5003;41674;52.290;-1.474;2023-08-12T11:00:23;1;1;
55754;PMS5003;41674;52.290;-1.474;2023-08-12T11:02:52;1;1;
55754;PMS5003;41674;52.290;-1.474;2023-08-12T11:05:21;2;1;
55754;PMS5003;41674;52.290;-1.474;2023-08-12T11:07:55;4;2;
55754;PMS5003;41674;52.290;-1.474;2023-08-12T11:10:21;1;1;
55754;PMS5003;41674;52.290;-1.474;2023-08-12T11:12:54;1;1;
55754;PMS5003;41674;52.290;-1.474;2023-08-12T11:15:19;1;1;
55754;PMS5003;41674;52.290;-1.474;2023-08-12T11:17:48;2;2;
55754;PMS5003;41674;52.290;-1.474;2023-08-12T11:20:18;0;0;
55754;PMS5003;41674;52.290;-1.474;2023-08-12T11:22:47;3;2;
55754;PMS5003;41674;52.290;-1.474;2023-08-12T11:25:17;2;1;
55754;PMS5003;41674;52.290;-1.474;2023-08-12T11:27:47;1;1;
55754;PMS5003;41674;52.290;-1.474;2023-08-12T11:30:18;3;2;
55754;PMS5003;41674;52.290;-1.474;2023-08-12T11:32:46;2;2;
55754;PMS5003;41674;52.290;-1.474;2023-08-12T11:35:15;4;2;
55754;PMS5003;41674;52.290;-1.474;2023-08-12T11:37:45;1;1;
55754;PMS5003;41674;52.290;-1.474;2023-08-12T11:40:15;3;1;
55754;PMS5003;41674;52.290;-1.474;2023-08-12T11:42:45;0;0;
55754;PMS5003;41674;52.290;-1.474;2023-08-12T11:45:13;4;3;
55754;PMS5003;41674;52.290;-1.474;2023-08-12T11:47:42;0;0;
55754;PMS5003;41674;52.290;-1.474;2023-08-12T11:50:12;2;2;
55754;PMS5003;41674;52.290;-1.474;2023-08-12T11:52:41;3;2;
55754;PMS5003;41674;52.290;-1.474;2023-08-12T11:55:11;2;2;
55754;PMS5003;41674;52.290;-1.474;2023-08-12T11:57:40;1;1;
55754;PMS5003;41674;52.290;-1.474;2023-08-12T12:00:11;0;0;
55754;PMS5003;41674;52.290;-1.474;2023-08-12T12:02:41;3;2;
55754;PMS5003;41674;52.290;-1.474;2023-08-12T12:05:09;2;1;
55754;PMS5003;41674;52.290;-1.474;2023-08-12T12:07:38;1;1;
55754;PMS5003;41674;52.290;-1.474;2023-08-12T12:10:12;1;1;
55754;PMS5003;41674;52.290;-1.474;2023-08-12T12:12:38;2;1;
55754;PMS5003;41674;52.290;-1.474;2023-08-12T12:15:07;2;1;
55754;PMS5003;41674;52.290;-1.474;2023-08-12T12:17:38;4;3;
55754;PMS5003;41674;52.290;-1.474;2023-08-12T12:20:06;2;2;
55754;PMS5003;41674;52.290;-1.474;2023-08-12T12:22:35;2;2;
55754;PMS5003;41674;52.290;-1.474;2023-08-12T12:25:06;2;2;
55754;PMS5003;41674;52.290;-1.474;2023-08-12T12:27:34;2;1;
55754;PMS5003;41674;52.290;-1.474;2023-08-12T12:30:05;3;1;
55754;PMS5003;41674;52.290;-1.474;2023-08-12T12:32:34;1;1;
55754;PMS5003;41674;52.290;-1.474;2023-08-12T12:35:04;1;1;
55754;PMS5003;41674;52.290;-1.474;2023-08-12T12:37:33;3;2;
55754;PMS5003;41674;52.290;-1.474;2023-08-12T12:40:02;0;0;
55754;PMS5003;41674;52.290;-1.474;2023-08-12T12:45:01;1;0;
55754;PMS5003;41674;52.290;-1.474;2023-08-12T12:47:31;3;2;
55754;PMS5003;41674;52.290;-1.474;2023-08-12T12:50:00;1;0;
55754;PMS5003;41674;52.290;-1.474;2023-08-12T12:52:30;2;2;
55754;PMS5003;41674;52.290;-1.474;2023-08-12T12:54:59;2;1;
55754;PMS5003;41674;52.290;-1.474;2023-08-12T12:57:28;2;2;
55754;PMS5003;41674;52.290;-1.474;2023-08-12T12:59:58;1;1;
55754;PMS5003;41674;52.290;-1.474;2023-08-12T13:02:28;0;0;
55754;PMS5003;41674;52.290;-1.474;2023-08-12T13:04:57;2;1;
55754;PMS5003;41674;52.290;-1.474;2023-08-12T13:07:27;2;2;
55754;PMS5003;41674;52.290;-1.474;2023-08-12T13:09:56;0;0;
55754;PMS5003;41674;52.290;-1.474;2023-08-12T13:12:25;1;1;
55754;PMS5003;41674;52.290;-1.474;2023-08-12T13:14:55;3;2;
55754;PMS5003;41674;52.290;-1.474;2023-08-12T13:17:24;4;1;
55754;PMS5003;41674;52.290;-1.474;2023-08-12T13:19:54;1;1;
55754;PMS5003;41674;52.290;-1.474;2023-08-12T13:22:24;2;2;
55754;PMS5003;41674;52.290;-1.474;2023-08-12T13:24:53;1;1;
55754;PMS5003;41674;52.290;-1.474;2023-08-12T13:27:23;0;0;
55754;PMS5003;41674;52.290;-1.474;2023-08-12T13:29:52;1;1;
55754;PMS5003;41674;52.290;-1.474;2023-08-12T13:32:22;2;1;
55754;PMS5003;41674;52.290;-1.474;2023-08-12T13:34:51;3;3;
55754;PMS5003;41674;52.290;-1.474;2023-08-12T13:37:21;1;1;
55754;PMS5003;41674;52.290;-1.474;2023-08-12T13:39:50;1;1;
55754;PMS5003;41674;52.290;-1.474;2023-08-12T13:42:20;1;1;
55754;PMS5003;41674;52.290;-1.474;2023-08-12T13:44:49;2;1;
55754;PMS5003;41674;52.290;-1.474;2023-08-12T13:47:19;2;2;
55754;PMS5003;41674;52.290;-1.474;2023-08-12T13:49:48;0;0;
55754;PMS5003;41674;52.290;-1.474;2023-08-12T13:52:18;0;0;
55754;PMS5003;41674;52.290;-1.474;2023-08-12T13:54:48;2;2;
55754;PMS5003;41674;52.290;-1.474;2023-08-12T13:57:17;2;2;
55754;PMS5003;41674;52.290;-1.474;2023-08-12T13:59:46;3;1;
55754;PMS5003;41674;52.290;-1.474;2023-08-12T14:02:16;1;1;
55754;PMS5003;41674;52.290;-1.474;2023-08-12T14:04:45;1;1;
55754;PMS5003;41674;52.290;-1.474;2023-08-12T14:07:15;1;1;
55754;PMS5003;41674;52.290;-1.474;2023-08-12T14:09:44;2;2;
55754;PMS5003;41674;52.290;-1.474;2023-08-12T14:12:14;2;2;
55754;PMS5003;41674;52.290;-1.474;2023-08-12T14:14:44;1;1;
55754;PMS5003;41674;52.290;-1.474;2023-08-12T14:17:13;1;1;
55754;PMS5003;41674;52.290;-1.474;2023-08-12T14:19:43;1;1;
55754;PMS5003;41674;52.290;-1.474;2023-08-12T14:22:12;1;1;
55754;PMS5003;41674;52.290;-1.474;2023-08-12T14:24:42;1;1;
55754;PMS5003;41674;52.290;-1.474;2023-08-12T14:27:11;1;1;
55754;PMS5003;41674;52.290;-1.474;2023-08-12T14:29:41;1;1;
55754;PMS5003;41674;52.290;-1.474;2023-08-12T14:32:10;3;2;
55754;PMS5003;41674;52.290;-1.474;2023-08-12T14:34:40;0;0;
55754;PMS5003;41674;52.290;-1.474;2023-08-12T14:37:09;2;1;
55754;PMS5003;41674;52.290;-1.474;2023-08-12T14:39:39;7;7;
55754;PMS5003;41674;52.290;-1.474;2023-08-12T14:42:08;1;1;
55754;PMS5003;41674;52.290;-1.474;2023-08-12T14:44:38;2;1;
55754;PMS5003;41674;52.290;-1.474;2023-08-12T14:47:07;2;2;
55754;PMS5003;41674;52.290;-1.474;2023-08-12T14:49:37;1;0;
55754;PMS5003;41674;52.290;-1.474;2023-08-12T14:54:36;1;1;
55754;PMS5003;41674;52.290;-1.474;2023-08-12T14:57:05;1;0;
55754;PMS5003;41674;52.290;-1.474;2023-08-12T14:59:35;1;1;
55754;PMS5003;41674;52.290;-1.474;2023-08-12T15:02:05;2;1;
55754;PMS5003;41674;52.290;-1.474;2023-08-12T15:04:34;3;2;
55754;PMS5003;41674;52.290;-1.474;2023-08-12T15:07:04;2;2;
55754;PMS5003;41674;52.290;-1.474;2023-08-12T15:09:33;0;0;
55754;PMS5003;41674;52.290;-1.474;2023-08-12T15:12:03;1;0;
55754;PMS5003;41674;52.290;-1.474;2023-08-12T15:14:32;1;1;
55754;PMS5003;41674;52.290;-1.474;2023-08-12T15:17:02;2;2;
55754;PMS5003;41674;52.290;-1.474;2023-08-12T15:19:31;2;2;
55754;PMS5003;41674;52.290;-1.474;2023-08-12T15:22:01;2;1;
55754;PMS5003;41674;52.290;-1.474;2023-08-12T15:24:30;1;1;
55754;PMS5003;41674;52.290;-1.474;2023-08-12T15:27:00;2;2;
55754;PMS5003;41674;52.290;-1.474;2023-08-12T15:29:29;3;3;
55754;PMS5003;41674;52.290;-1.474;2023-08-12T15:31:59;2;2;
55754;PMS5003;41674;52.290;-1.474;2023-08-12T15:34:29;1;1;
55754;PMS5003;41674;52.290;-1.474;2023-08-12T15:36:58;1;1;
55754;PMS5003;41674;52.290;-1.474;2023-08-12T15:39:28;1;1;
55754;PMS5003;41674;52.290;-1.474;2023-08-12T15:41:57;1;1;
55754;PMS5003;41674;52.290;-1.474;2023-08-12T15:44:26;1;1;
55754;PMS5003;41674;52.290;-1.474;2023-08-12T15:46:56;3;2;
55754;PMS5003;41674;52.290;-1.474;2023-08-12T15:49:25;2;1;
55754;PMS5003;41674;52.290;-1.474;2023-08-12T15:51:55;1;1;
55754;PMS5003;41674;52.290;-1.474;2023-08-12T15:54:24;1;1;
55754;PMS5003;41674;52.290;-1.474;2023-08-12T15:56:54;2;1;
55754;PMS5003;41674;52.290;-1.474;2023-08-12T15:59:24;1;1;
55754;PMS5003;41674;52.290;-1.474;2023-08-12T16:01:53;0;0;
55754;PMS5003;41674;52.290;-1.474;2023-08-12T16:04:23;1;1;
55754;PMS5003;41674;52.290;-1.474;2023-08-12T16:06:52;0;0;
55754;PMS5003;41674;52.290;-1.474;2023-08-12T16:09:22;1;1;
55754;PMS5003;41674;52.290;-1.474;2023-08-12T16:11:51;2;2;
55754;PMS5003;41674;52.290;-1.474;2023-08-12T16:14:21;4;4;
55754;PMS5003;41674;52.290;-1.474;2023-08-12T16:16:50;1;1;
55754;PMS5003;41674;52.290;-1.474;2023-08-12T16:19:20;0;0;
55754;PMS5003;41674;52.290;-1.474;2023-08-12T16:21:49;1;1;
55754;PMS5003;41674;52.290;-1.474;2023-08-12T16:24:19;2;2;
55754;PMS5003;41674;52.290;-1.474;2023-08-12T16:26:48;2;2;
55754;PMS5003;41674;52.290;-1.474;2023-08-12T16:29:18;1;1;
55754;PMS5003;41674;52.290;-1.474;2023-08-12T16:31:47;3;3;
55754;PMS5003;41674;52.290;-1.474;2023-08-12T16:34:17;2;2;
55754;PMS5003;41674;52.290;-1.474;2023-08-12T16:36:46;3;1;
55754;PMS5003;41674;52.290;-1.474;2023-08-12T16:39:16;2;2;
55754;PMS5003;41674;52.290;-1.474;2023-08-12T16:41:46;1;1;
55754;PMS5003;41674;52.290;-1.474;2023-08-12T16:44:15;1;1;
55754;PMS5003;41674;52.290;-1.474;2023-08-12T16:46:45;2;2;
55754;PMS5003;41674;52.290;-1.474;2023-08-12T16:49:14;1;1;
55754;PMS5003;41674;52.290;-1.474;2023-08-12T16:51:44;1;1;
55754;PMS5003;41674;52.290;-1.474;2023-08-12T16:54:13;1;1;
55754;PMS5003;41674;52.290;-1.474;2023-08-12T16:56:43;3;0;